createdAt,value
2018-06-19T00:00:10.761Z,0.00
2018-06-19T00:01:10.728Z,0.00
2018-06-19T00:02:10.724Z,0.00
2018-06-19T00:03:10.681Z,0.00
2018-06-19T00:04:10.665Z,0.00
2018-06-19T00:05:10.684Z,0.00
2018-06-19T00:06:10.642Z,0.00
2018-06-19T00:07:10.584Z,0.00
2018-06-19T00:08:10.628Z,0.00
2018-06-19T00:09:10.535Z,0.00
2018-06-19T00:10:10.537Z,0.00
2018-06-19T00:11:10.486Z,0.00
2018-06-19T00:12:10.462Z,0.00
2018-06-19T00:13:10.426Z,0.00
2018-06-19T00:14:10.416Z,0.00
2018-06-19T00:15:10.378Z,0.00
2018-06-19T00:16:10.345Z,0.00
2018-06-19T00:17:10.346Z,0.00
2018-06-19T00:18:10.303Z,0.00
2018-06-19T00:19:10.260Z,0.00
2018-06-19T00:20:10.223Z,0.00
2018-06-19T00:21:10.249Z,0.00
2018-06-19T00:22:10.164Z,0.00
2018-06-19T00:23:10.143Z,0.00
2018-06-19T00:24:10.126Z,0.00
2018-06-19T00:25:10.088Z,0.00
2018-06-19T00:26:10.100Z,0.00
2018-06-19T00:27:10.090Z,0.00
2018-06-19T00:28:10.009Z,0.00
2018-06-19T00:29:09.990Z,0.00
2018-06-19T00:30:09.956Z,0.00
2018-06-19T00:31:09.930Z,0.00
2018-06-19T00:32:09.912Z,0.00
2018-06-19T00:33:09.875Z,0.00
2018-06-19T00:34:09.858Z,0.00
2018-06-19T00:35:09.826Z,0.00
2018-06-19T00:36:09.791Z,0.00
2018-06-19T00:37:09.767Z,0.00
2018-06-19T00:38:09.767Z,0.00
2018-06-19T00:39:09.767Z,0.00
2018-06-19T00:40:09.688Z,0.00
2018-06-19T00:41:09.754Z,0.00
2018-06-19T00:42:09.632Z,0.00
2018-06-19T00:43:09.652Z,0.00
2018-06-19T00:44:09.609Z,0.00
2018-06-19T00:45:09.621Z,0.00
2018-06-19T00:46:09.534Z,0.00
2018-06-19T00:47:09.512Z,0.00
2018-06-19T00:48:09.496Z,0.00
2018-06-19T00:49:09.452Z,0.00
2018-06-19T00:50:09.438Z,0.00
2018-06-19T00:51:09.407Z,0.00
2018-06-19T00:52:09.373Z,0.00
2018-06-19T00:53:09.353Z,0.00
2018-06-19T00:54:09.314Z,0.00
2018-06-19T00:55:09.279Z,0.00
2018-06-19T00:56:09.259Z,0.00
2018-06-19T00:57:09.284Z,0.00
2018-06-19T00:58:09.205Z,0.00
2018-06-19T00:59:09.178Z,0.00
2018-06-19T01:00:09.194Z,0.00
2018-06-19T01:01:09.128Z,0.00
2018-06-19T01:02:09.115Z,0.00
2018-06-19T01:03:09.071Z,0.00
2018-06-19T01:04:09.048Z,0.00
2018-06-19T01:05:09.016Z,0.00
2018-06-19T01:06:09.027Z,0.00
2018-06-19T01:07:08.969Z,0.00
2018-06-19T01:08:08.938Z,0.00
2018-06-19T01:09:08.944Z,0.00
2018-06-19T01:10:08.885Z,0.00
2018-06-19T01:11:08.863Z,0.00
2018-06-19T01:12:08.887Z,0.00
2018-06-19T01:13:08.808Z,0.00
2018-06-19T01:14:08.782Z,0.00
2018-06-19T01:15:08.833Z,0.00
2018-06-19T01:16:08.719Z,0.00
2018-06-19T01:17:08.705Z,0.00
2018-06-19T01:18:08.721Z,0.00
2018-06-19T01:19:08.740Z,0.00
2018-06-19T01:20:08.640Z,0.00
2018-06-19T01:21:08.650Z,0.00
2018-06-19T01:22:08.632Z,0.00
2018-06-19T01:23:08.539Z,0.00
2018-06-19T01:24:08.528Z,0.00
2018-06-19T01:25:08.480Z,0.00
2018-06-19T01:26:08.456Z,0.00
2018-06-19T01:27:08.429Z,0.00
2018-06-19T01:28:08.397Z,0.00
2018-06-19T01:29:08.373Z,0.00
2018-06-19T01:30:08.352Z,0.00
2018-06-19T01:31:08.330Z,0.00
2018-06-19T01:32:08.304Z,0.00
2018-06-19T01:33:08.305Z,0.00
2018-06-19T01:34:08.243Z,0.00
2018-06-19T01:35:08.218Z,0.00
2018-06-19T01:36:08.206Z,0.00
2018-06-19T01:37:08.215Z,0.00
2018-06-19T01:38:08.226Z,0.00
2018-06-19T01:39:08.124Z,0.00
2018-06-19T01:40:08.118Z,0.00
2018-06-19T01:41:08.061Z,0.00
2018-06-19T01:42:08.036Z,0.00
2018-06-19T01:43:08.031Z,0.00
2018-06-19T01:44:08.028Z,0.00
2018-06-19T01:45:07.959Z,0.00
2018-06-19T01:46:07.951Z,0.00
2018-06-19T01:47:07.932Z,0.00
2018-06-19T01:48:07.868Z,0.00
2018-06-19T01:49:07.844Z,0.00
2018-06-19T01:50:07.815Z,0.00
2018-06-19T01:51:07.809Z,0.00
2018-06-19T01:52:07.790Z,0.00
2018-06-19T01:53:07.734Z,0.00
2018-06-19T01:54:07.703Z,0.00
2018-06-19T01:55:07.695Z,0.00
2018-06-19T01:56:07.656Z,0.00
2018-06-19T01:57:07.661Z,0.00
2018-06-19T01:58:07.637Z,0.00
2018-06-19T01:59:07.572Z,0.00
2018-06-19T02:00:07.544Z,0.00
2018-06-19T02:01:07.526Z,0.00
2018-06-19T02:02:07.493Z,0.00
2018-06-19T02:03:07.468Z,0.00
2018-06-19T02:04:07.487Z,0.00
2018-06-19T02:05:07.413Z,0.00
2018-06-19T02:06:07.378Z,0.00
2018-06-19T02:07:07.356Z,0.00
2018-06-19T02:08:07.325Z,0.00
2018-06-19T02:09:07.308Z,0.00
2018-06-19T02:10:07.278Z,0.00
2018-06-19T02:11:07.252Z,0.00
2018-06-19T02:12:07.230Z,0.00
2018-06-19T02:13:07.252Z,0.00
2018-06-19T02:14:07.179Z,0.00
2018-06-19T02:15:07.144Z,0.00
2018-06-19T02:16:07.154Z,0.00
2018-06-19T02:17:07.084Z,0.00
2018-06-19T02:18:07.065Z,0.00
2018-06-19T02:19:07.061Z,0.00
2018-06-19T02:20:07.063Z,0.00
2018-06-19T02:21:06.982Z,0.00
2018-06-19T02:22:06.977Z,0.00
2018-06-19T02:23:06.943Z,0.00
2018-06-19T02:24:06.900Z,0.00
2018-06-19T02:25:06.891Z,0.00
2018-06-19T02:26:06.840Z,0.00
2018-06-19T02:27:06.827Z,0.00
2018-06-19T02:28:06.837Z,0.00
2018-06-19T02:29:06.768Z,0.00
2018-06-19T02:30:06.741Z,0.00
2018-06-19T02:31:06.738Z,0.00
2018-06-19T02:32:06.744Z,0.00
2018-06-19T02:33:06.660Z,0.00
2018-06-19T02:34:06.667Z,0.00
2018-06-19T02:35:06.641Z,0.00
2018-06-19T02:36:06.582Z,0.00
2018-06-19T02:37:06.611Z,0.00
2018-06-19T02:38:06.600Z,0.00
2018-06-19T02:39:06.497Z,4.00
2018-06-19T02:40:06.473Z,4.00
2018-06-19T02:41:06.456Z,0.00
2018-06-19T02:42:06.416Z,0.00
2018-06-19T02:43:06.412Z,0.00
2018-06-19T02:44:06.414Z,0.00
2018-06-19T02:45:06.344Z,4.00
2018-06-19T02:46:06.329Z,4.00
2018-06-19T02:47:06.328Z,4.00
2018-06-19T02:48:06.254Z,4.00
2018-06-19T02:49:06.282Z,4.00
2018-06-19T02:50:06.202Z,4.00
2018-06-19T02:51:06.181Z,4.00
2018-06-19T02:52:06.175Z,8.00
2018-06-19T02:53:06.118Z,4.00
2018-06-19T02:54:06.098Z,8.00
2018-06-19T02:55:06.086Z,8.00
2018-06-19T02:56:06.044Z,8.00
2018-06-19T02:57:06.011Z,8.00
2018-06-19T02:58:06.014Z,12.00
2018-06-19T02:59:05.958Z,8.00
2018-06-19T03:00:05.936Z,12.00
2018-06-19T03:01:05.933Z,12.00
2018-06-19T03:02:05.970Z,12.00
2018-06-19T03:03:05.852Z,16.00
2018-06-19T03:04:05.864Z,16.00
2018-06-19T03:05:05.794Z,16.00
2018-06-19T03:06:05.784Z,16.00
2018-06-19T03:07:05.773Z,24.00
2018-06-19T03:08:05.768Z,24.00
2018-06-19T03:09:05.706Z,28.00
2018-06-19T03:10:05.690Z,28.00
2018-06-19T03:11:05.641Z,32.00
2018-06-19T03:12:05.614Z,36.00
2018-06-19T03:13:05.607Z,40.00
2018-06-19T03:14:05.566Z,40.00
2018-06-19T03:15:05.539Z,44.00
2018-06-19T03:16:05.514Z,48.00
2018-06-19T03:17:05.476Z,52.00
2018-06-19T03:18:05.456Z,56.00
2018-06-19T03:19:05.450Z,60.00
2018-06-19T03:20:05.404Z,64.00
2018-06-19T03:21:05.371Z,68.00
2018-06-19T03:22:05.343Z,76.00
2018-06-19T03:23:05.316Z,80.00
2018-06-19T03:24:05.287Z,84.00
2018-06-19T03:25:05.270Z,88.00
2018-06-19T03:26:05.278Z,92.00
2018-06-19T03:27:05.284Z,96.00
2018-06-19T03:28:05.199Z,104.00
2018-06-19T03:29:05.232Z,108.00
2018-06-19T03:30:05.184Z,108.00
2018-06-19T03:31:05.113Z,100.00
2018-06-19T03:32:05.117Z,100.00
2018-06-19T03:33:05.121Z,100.00
2018-06-19T03:34:05.033Z,104.00
2018-06-19T03:35:04.990Z,108.00
2018-06-19T03:36:04.999Z,124.00
2018-06-19T03:37:04.944Z,136.00
2018-06-19T03:38:04.924Z,144.00
2018-06-19T03:39:04.932Z,148.00
2018-06-19T03:40:04.864Z,160.00
2018-06-19T03:41:04.829Z,164.00
2018-06-19T03:42:04.829Z,160.00
2018-06-19T03:43:04.773Z,160.00
2018-06-19T03:44:04.780Z,168.00
2018-06-19T03:45:04.727Z,164.00
2018-06-19T03:46:04.704Z,160.00
2018-06-19T03:47:04.758Z,176.00
2018-06-19T03:48:04.948Z,196.00
2018-06-19T03:49:04.635Z,204.00
2018-06-19T03:50:04.592Z,220.00
2018-06-19T03:51:04.565Z,212.00
2018-06-19T03:52:04.542Z,212.00
2018-06-19T03:53:04.547Z,220.00
2018-06-19T03:54:04.477Z,216.00
2018-06-19T03:55:04.449Z,212.00
2018-06-19T03:56:04.472Z,188.00
2018-06-19T03:57:04.398Z,180.00
2018-06-19T03:58:04.372Z,180.00
2018-06-19T03:59:04.357Z,196.00
2018-06-19T04:00:04.319Z,224.00
2018-06-19T04:01:04.295Z,232.00
2018-06-19T04:02:04.277Z,216.00
2018-06-19T04:03:04.230Z,208.00
2018-06-19T04:04:04.222Z,220.00
2018-06-19T04:05:04.231Z,236.00
2018-06-19T04:06:04.172Z,256.00
2018-06-19T04:07:04.136Z,260.00
2018-06-19T04:08:04.096Z,232.00
2018-06-19T04:09:04.084Z,224.00
2018-06-19T04:10:04.063Z,256.00
2018-06-19T04:11:04.035Z,276.00
2018-06-19T04:12:04.004Z,256.00
2018-06-19T04:13:03.973Z,248.00
2018-06-19T04:14:03.966Z,268.00
2018-06-19T04:15:03.915Z,272.00
2018-06-19T04:16:03.903Z,260.00
2018-06-19T04:17:03.877Z,284.00
2018-06-19T04:18:03.904Z,324.00
2018-06-19T04:19:03.822Z,336.00
2018-06-19T04:20:03.792Z,344.00
2018-06-19T04:21:03.819Z,372.00
2018-06-19T04:22:03.859Z,380.00
2018-06-19T04:23:03.709Z,372.00
2018-06-19T04:24:03.748Z,364.00
2018-06-19T04:25:03.656Z,348.00
2018-06-19T04:26:03.627Z,372.00
2018-06-19T04:27:03.597Z,428.00
2018-06-19T04:28:03.583Z,456.00
2018-06-19T04:29:03.548Z,436.00
2018-06-19T04:30:03.519Z,460.00
2018-06-19T04:31:03.487Z,488.00
2018-06-19T04:32:03.464Z,508.00
2018-06-19T04:33:03.432Z,484.00
2018-06-19T04:34:03.453Z,440.00
2018-06-19T04:35:03.380Z,416.00
2018-06-19T04:36:03.357Z,408.00
2018-06-19T04:37:03.326Z,420.00
2018-06-19T04:38:03.303Z,432.00
2018-06-19T04:39:03.281Z,480.00
2018-06-19T04:40:03.252Z,472.00
2018-06-19T04:41:03.221Z,468.00
2018-06-19T04:42:03.199Z,480.00
2018-06-19T04:43:03.159Z,500.00
2018-06-19T04:44:03.128Z,492.00
2018-06-19T04:45:03.112Z,524.00
2018-06-19T04:46:03.105Z,592.00
2018-06-19T04:47:03.049Z,660.00
2018-06-19T04:48:03.043Z,712.00
2018-06-19T04:49:03.014Z,804.00
2018-06-19T04:50:03.057Z,828.00
2018-06-19T04:51:02.960Z,856.00
2018-06-19T04:52:02.917Z,840.00
2018-06-19T04:53:02.912Z,872.00
2018-06-19T04:54:02.867Z,916.00
2018-06-19T04:55:02.840Z,864.00
2018-06-19T04:56:02.830Z,860.00
2018-06-19T04:57:02.789Z,792.00
2018-06-19T04:58:02.770Z,792.00
2018-06-19T04:59:02.762Z,880.00
2018-06-19T05:00:02.715Z,1024.00
2018-06-19T05:01:02.677Z,1164.00
2018-06-19T05:02:02.672Z,1036.00
2018-06-19T05:03:02.656Z,1000.00
2018-06-19T05:04:02.603Z,932.00
2018-06-19T05:05:02.586Z,932.00
2018-06-19T05:06:02.546Z,944.00
2018-06-19T05:07:02.517Z,964.00
2018-06-19T05:08:02.492Z,896.00
2018-06-19T05:09:02.472Z,832.00
2018-06-19T05:10:02.444Z,816.00
2018-06-19T05:11:02.411Z,840.00
2018-06-19T05:12:02.387Z,872.00
2018-06-19T05:13:02.358Z,988.00
2018-06-19T05:14:02.386Z,968.00
2018-06-19T05:15:02.302Z,952.00
2018-06-19T05:16:02.276Z,1028.00
2018-06-19T05:17:02.265Z,1196.00
2018-06-19T05:18:02.229Z,1104.00
2018-06-19T05:19:02.197Z,1028.00
2018-06-19T05:20:02.173Z,944.00
2018-06-19T05:21:02.147Z,864.00
2018-06-19T05:22:02.112Z,920.00
2018-06-19T05:23:02.096Z,896.00
2018-06-19T05:24:02.057Z,964.00
2018-06-19T05:25:02.043Z,968.00
2018-06-19T05:26:02.010Z,864.00
2018-06-19T05:27:01.982Z,752.00
2018-06-19T05:28:01.960Z,760.00
2018-06-19T05:29:01.938Z,824.00
2018-06-19T05:30:01.918Z,792.00
2018-06-19T05:31:01.876Z,764.00
2018-06-19T05:32:01.884Z,788.00
2018-06-19T05:33:01.824Z,864.00
2018-06-19T05:34:01.795Z,956.00
2018-06-19T05:35:01.938Z,1108.00
2018-06-19T05:36:01.740Z,1148.00
2018-06-19T05:37:01.706Z,1064.00
2018-06-19T05:38:01.720Z,1184.00
2018-06-19T05:39:01.664Z,1152.00
2018-06-19T05:40:01.640Z,1272.00
2018-06-19T05:41:01.598Z,1284.00
2018-06-19T05:42:01.581Z,1392.00
2018-06-19T05:43:01.548Z,1464.00
2018-06-19T05:44:01.542Z,1340.00
2018-06-19T05:45:01.501Z,1248.00
2018-06-19T05:46:01.593Z,1524.00
2018-06-19T05:47:01.442Z,1720.00
2018-06-19T05:48:01.420Z,1636.00
2018-06-19T05:49:01.386Z,1592.00
2018-06-19T05:50:01.370Z,1848.00
2018-06-19T05:51:01.337Z,1996.00
2018-06-19T05:52:01.314Z,2036.00
2018-06-19T05:53:01.302Z,2112.00
2018-06-19T05:54:01.250Z,1984.00
2018-06-19T05:55:01.240Z,2112.00
2018-06-19T05:56:01.205Z,2044.00
2018-06-19T05:57:01.187Z,2004.00
2018-06-19T05:58:01.146Z,1996.00
2018-06-19T05:59:01.161Z,1940.00
2018-06-19T06:00:01.100Z,1788.00
2018-06-19T06:01:01.066Z,1876.00
2018-06-19T06:02:01.058Z,2000.00
2018-06-19T06:03:01.017Z,1948.00
2018-06-19T06:04:01.037Z,1856.00
2018-06-19T06:05:00.991Z,1992.00
2018-06-19T06:06:01.084Z,2108.00
2018-06-19T06:07:01.052Z,2104.00
2018-06-19T06:08:00.900Z,1968.00
2018-06-19T06:09:00.850Z,2108.00
2018-06-19T06:10:00.867Z,2088.00
2018-06-19T06:11:00.865Z,2096.00
2018-06-19T06:12:00.863Z,2172.00
2018-06-19T06:13:00.744Z,2332.00
2018-06-19T06:14:00.759Z,2192.00
2018-06-19T06:15:00.695Z,2100.00
2018-06-19T06:16:00.671Z,2276.00
2018-06-19T06:17:00.684Z,2392.00
2018-06-19T06:18:00.613Z,2340.00
2018-06-19T06:19:00.643Z,2332.00
2018-06-19T06:20:00.561Z,2248.00
2018-06-19T06:21:00.533Z,2060.00
2018-06-19T06:22:00.517Z,2124.00
2018-06-19T06:23:00.483Z,2180.00
2018-06-19T06:24:00.498Z,2188.00
2018-06-19T06:25:00.443Z,2080.00
2018-06-19T06:26:00.415Z,1828.00
2018-06-19T06:27:00.397Z,1784.00
2018-06-19T06:28:00.369Z,1816.00
2018-06-19T06:29:00.333Z,1876.00
2018-06-19T06:30:00.312Z,2012.00
2018-06-19T06:31:00.283Z,1868.00
2018-06-19T06:32:00.253Z,1928.00
2018-06-19T06:33:00.237Z,1928.00
2018-06-19T06:34:00.220Z,1756.00
2018-06-19T06:35:00.174Z,1760.00
2018-06-19T06:36:00.154Z,1768.00
2018-06-19T06:37:00.839Z,1644.00
2018-06-19T06:38:00.092Z,1600.00
2018-06-19T06:39:00.081Z,1568.00
2018-06-19T06:40:00.166Z,1524.00
2018-06-19T06:41:00.013Z,1508.00
2018-06-19T06:41:59.992Z,1492.00
2018-06-19T06:42:59.956Z,1576.00
2018-06-19T06:43:59.927Z,1620.00
2018-06-19T06:44:59.907Z,1676.00
2018-06-19T06:45:59.880Z,1708.00
2018-06-19T06:46:59.853Z,1672.00
2018-06-19T06:47:59.851Z,1608.00
2018-06-19T06:48:59.804Z,1716.00
2018-06-19T06:49:59.769Z,1880.00
2018-06-19T06:50:59.753Z,1908.00
2018-06-19T06:51:59.723Z,1928.00
2018-06-19T06:52:59.687Z,1964.00
2018-06-19T06:53:59.680Z,1844.00
2018-06-19T06:54:59.643Z,1996.00
2018-06-19T06:55:59.616Z,2160.00
2018-06-19T06:56:59.592Z,2296.00
2018-06-19T06:57:59.564Z,2276.00
2018-06-19T06:58:59.533Z,2244.00
2018-06-19T06:59:59.515Z,2288.00
2018-06-19T07:00:59.488Z,2396.00
2018-06-19T07:01:59.460Z,2492.00
2018-06-19T07:02:59.424Z,2344.00
2018-06-19T07:04:00.023Z,2140.00
2018-06-19T07:04:59.374Z,2028.00
2018-06-19T07:05:59.377Z,2084.00
2018-06-19T07:06:59.329Z,2120.00
2018-06-19T07:07:59.667Z,2064.00
2018-06-19T07:08:59.282Z,2004.00
2018-06-19T07:09:59.298Z,1988.00
2018-06-19T07:10:59.225Z,2076.00
2018-06-19T07:11:59.188Z,2068.00
2018-06-19T07:12:59.174Z,1968.00
2018-06-19T07:13:59.151Z,2004.00
2018-06-19T07:14:59.116Z,2052.00
2018-06-19T07:15:59.145Z,1980.00
2018-06-19T07:16:59.066Z,1832.00
2018-06-19T07:17:59.050Z,1828.00
2018-06-19T07:18:59.135Z,1964.00
2018-06-19T07:19:58.991Z,1944.00
2018-06-19T07:20:58.959Z,1996.00
2018-06-19T07:21:58.964Z,2080.00
2018-06-19T07:22:58.906Z,2008.00
2018-06-19T07:23:58.875Z,1992.00
2018-06-19T07:24:58.871Z,2160.00
2018-06-19T07:25:58.915Z,2340.00
2018-06-19T07:26:58.799Z,2448.00
2018-06-19T07:27:58.785Z,2328.00
2018-06-19T07:28:58.760Z,2424.00
2018-06-19T07:29:58.719Z,2632.00
2018-06-19T07:30:58.718Z,2584.00
2018-06-19T07:31:58.681Z,2436.00
2018-06-19T07:32:58.647Z,2420.00
2018-06-19T07:33:58.613Z,2348.00
2018-06-19T07:34:58.581Z,2284.00
2018-06-19T07:35:58.561Z,2240.00
2018-06-19T07:36:58.542Z,2244.00
2018-06-19T07:37:58.582Z,2368.00
2018-06-19T07:38:58.482Z,2528.00
2018-06-19T07:39:58.465Z,2616.00
2018-06-19T07:40:58.439Z,2612.00
2018-06-19T07:41:58.406Z,2684.00
2018-06-19T07:42:58.380Z,2728.00
2018-06-19T07:43:58.400Z,2528.00
2018-06-19T07:44:58.324Z,2596.00
2018-06-19T07:45:58.318Z,2544.00
2018-06-19T07:46:58.278Z,2444.00
2018-06-19T07:47:58.249Z,2480.00
2018-06-19T07:48:58.799Z,2464.00
2018-06-19T07:49:58.226Z,2504.00
2018-06-19T07:50:58.171Z,2596.00
2018-06-19T07:51:58.150Z,2640.00
2018-06-19T07:52:58.131Z,2476.00
2018-06-19T07:53:58.091Z,2312.00
2018-06-19T07:54:58.074Z,2612.00
2018-06-19T07:55:58.088Z,2748.00
2018-06-19T07:56:58.021Z,2368.00
2018-06-19T07:57:57.996Z,2220.00
2018-06-19T07:58:58.003Z,2112.00
2018-06-19T07:59:58.008Z,2320.00
2018-06-19T08:00:57.929Z,2396.00
2018-06-19T08:01:57.936Z,2464.00
2018-06-19T08:02:57.859Z,2340.00
2018-06-19T08:03:57.834Z,2824.00
2018-06-19T08:04:57.812Z,2712.00
2018-06-19T08:05:57.783Z,2600.00
2018-06-19T08:06:57.750Z,2488.00
2018-06-19T08:07:57.729Z,2444.00
2018-06-19T08:08:57.703Z,2392.00
2018-06-19T08:09:57.678Z,2188.00
2018-06-19T08:10:57.881Z,2252.00
2018-06-19T08:11:57.625Z,2448.00
2018-06-19T08:12:57.636Z,2468.00
2018-06-19T08:13:57.633Z,2208.00
2018-06-19T08:14:57.580Z,2384.00
2018-06-19T08:15:57.511Z,2896.00
2018-06-19T08:16:57.483Z,2828.00
2018-06-19T08:17:57.514Z,2720.00
2018-06-19T08:18:57.440Z,2592.00
2018-06-19T08:19:57.406Z,2408.00
2018-06-19T08:20:57.497Z,2340.00
2018-06-19T08:21:57.426Z,2480.00
2018-06-19T08:22:57.330Z,2372.00
2018-06-19T08:23:57.307Z,2588.00
2018-06-19T08:24:57.280Z,2420.00
2018-06-19T08:25:57.319Z,2320.00
2018-06-19T08:26:57.223Z,2356.00
2018-06-19T08:27:57.194Z,2352.00
2018-06-19T08:28:57.466Z,2236.00
2018-06-19T08:29:57.156Z,2252.00
2018-06-19T08:30:57.123Z,2088.00
2018-06-19T08:31:57.106Z,2132.00
2018-06-19T08:32:57.073Z,2032.00
2018-06-19T08:33:57.053Z,2108.00
2018-06-19T08:34:57.012Z,2288.00
2018-06-19T08:35:57.072Z,2560.00
2018-06-19T08:36:56.980Z,2460.00
2018-06-19T08:37:56.949Z,2400.00
2018-06-19T08:38:56.899Z,2364.00
2018-06-19T08:39:56.873Z,2512.00
2018-06-19T08:40:56.972Z,2532.00
2018-06-19T08:41:56.879Z,2824.00
2018-06-19T08:42:56.812Z,2632.00
2018-06-19T08:43:56.782Z,2660.00
2018-06-19T08:44:56.828Z,2828.00
2018-06-19T08:45:56.723Z,2832.00
2018-06-19T08:46:56.701Z,3104.00
2018-06-19T08:47:56.709Z,3300.00
2018-06-19T08:48:56.641Z,3172.00
2018-06-19T08:49:56.622Z,2984.00
2018-06-19T08:50:56.596Z,2696.00
2018-06-19T08:51:56.561Z,2544.00
2018-06-19T08:52:56.562Z,2768.00
2018-06-19T08:53:56.539Z,3180.00
2018-06-19T08:54:56.485Z,3236.00
2018-06-19T08:55:56.460Z,3328.00
2018-06-19T08:56:56.495Z,3472.00
2018-06-19T08:57:56.613Z,3612.00
2018-06-19T08:58:56.371Z,3456.00
2018-06-19T08:59:56.350Z,3348.00
2018-06-19T09:00:56.318Z,3348.00
2018-06-19T09:01:56.297Z,3268.00
2018-06-19T09:02:56.292Z,3160.00
2018-06-19T09:03:56.252Z,3304.00
2018-06-19T09:04:56.221Z,3416.00
2018-06-19T09:05:56.193Z,3696.00
2018-06-19T09:06:56.165Z,3520.00
2018-06-19T09:07:56.144Z,3716.00
2018-06-19T09:08:56.151Z,4168.00
2018-06-19T09:09:56.085Z,4336.00
2018-06-19T09:10:56.076Z,4240.00
2018-06-19T09:11:56.034Z,4000.00
2018-06-19T09:12:56.006Z,3940.00
2018-06-19T09:13:56.014Z,4276.00
2018-06-19T09:14:56.015Z,4328.00
2018-06-19T09:15:55.932Z,4256.00
2018-06-19T09:16:55.910Z,4356.00
2018-06-19T09:17:55.885Z,4540.00
2018-06-19T09:18:55.857Z,5108.00
2018-06-19T09:19:55.824Z,5108.00
2018-06-19T09:20:55.802Z,5056.00
2018-06-19T09:21:55.775Z,4708.00
2018-06-19T09:22:55.756Z,4700.00
2018-06-19T09:23:55.738Z,4872.00
2018-06-19T09:24:55.762Z,4984.00
2018-06-19T09:25:55.744Z,5228.00
2018-06-19T09:26:55.668Z,5288.00
2018-06-19T09:27:55.649Z,5456.00
2018-06-19T09:28:55.612Z,5612.00
2018-06-19T09:29:55.575Z,5552.00
2018-06-19T09:30:55.580Z,5440.00
2018-06-19T09:31:55.524Z,5176.00
2018-06-19T09:32:55.503Z,5592.00
2018-06-19T09:33:55.506Z,5620.00
2018-06-19T09:34:55.444Z,5504.00
2018-06-19T09:35:55.417Z,5288.00
2018-06-19T09:36:55.419Z,4924.00
2018-06-19T09:37:55.365Z,4600.00
2018-06-19T09:38:55.335Z,4556.00
2018-06-19T09:39:55.339Z,4268.00
2018-06-19T09:40:55.384Z,4320.00
2018-06-19T09:41:55.266Z,4548.00
2018-06-19T09:42:55.282Z,4440.00
2018-06-19T09:43:55.303Z,4376.00
2018-06-19T09:44:55.195Z,4524.00
2018-06-19T09:45:55.274Z,4876.00
2018-06-19T09:46:55.237Z,4468.00
2018-06-19T09:47:55.123Z,4060.00
2018-06-19T09:48:55.095Z,4108.00
2018-06-19T09:49:55.119Z,4056.00
2018-06-19T09:50:55.107Z,4040.00
2018-06-19T09:51:55.023Z,3932.00
2018-06-19T09:52:55.020Z,3820.00
2018-06-19T09:53:55.071Z,3720.00
2018-06-19T09:54:54.941Z,3864.00
2018-06-19T09:55:54.947Z,4008.00
2018-06-19T09:56:54.945Z,4276.00
2018-06-19T09:57:54.866Z,4548.00
2018-06-19T09:58:54.892Z,4624.00
2018-06-19T09:59:54.815Z,4768.00
2018-06-19T10:00:54.788Z,4804.00
2018-06-19T10:01:54.778Z,4772.00
2018-06-19T10:02:54.773Z,5024.00
2018-06-19T10:03:54.704Z,5284.00
2018-06-19T10:04:54.698Z,5480.00
2018-06-19T10:05:54.735Z,5432.00
2018-06-19T10:06:54.695Z,5512.00
2018-06-19T10:07:54.616Z,5428.00
2018-06-19T10:08:54.639Z,5376.00
2018-06-19T10:09:54.561Z,5512.00
2018-06-19T10:10:54.534Z,5840.00
2018-06-19T10:11:54.575Z,6116.00
2018-06-19T10:12:54.621Z,6104.00
2018-06-19T10:13:54.461Z,5932.00
2018-06-19T10:14:54.471Z,6348.00
2018-06-19T10:15:54.413Z,6368.00
2018-06-19T10:16:54.385Z,6332.00
2018-06-19T10:17:54.385Z,6496.00
2018-06-19T10:18:54.338Z,6752.00
2018-06-19T10:19:54.307Z,7080.00
2018-06-19T10:20:54.299Z,7164.00
2018-06-19T10:21:54.314Z,6768.00
2018-06-19T10:22:54.229Z,6584.00
2018-06-19T10:23:54.209Z,7264.00
2018-06-19T10:25:11.468Z,7996.00
2018-06-19T10:27:03.205Z,7104.00
2018-06-19T10:28:03.223Z,7440.00
2018-06-19T10:30:15.958Z,7348.00
2018-06-19T10:31:16.260Z,7012.00
2018-06-19T10:33:19.665Z,4792.00
2018-06-19T10:34:19.303Z,4832.00
2018-06-19T10:36:22.938Z,5760.00
2018-06-19T10:37:22.533Z,6532.00
2018-06-19T10:39:19.608Z,7924.00
2018-06-19T10:40:18.442Z,8120.00
2018-06-19T10:42:13.363Z,8976.00
2018-06-19T10:43:12.066Z,9148.00
2018-06-19T10:45:07.102Z,9204.00
2018-06-19T10:46:06.561Z,8876.00
2018-06-19T10:48:04.743Z,8188.00
2018-06-19T10:49:04.496Z,8100.00
2018-06-19T10:51:23.524Z,7804.00
2018-06-19T10:52:23.360Z,7236.00
2018-06-19T10:54:26.180Z,9340.00
2018-06-19T10:55:25.656Z,9876.00
2018-06-19T10:57:26.037Z,8360.00
2018-06-19T10:58:26.092Z,7988.00
2018-06-19T11:00:30.604Z,8480.00
2018-06-19T11:01:30.310Z,8064.00
2018-06-19T11:03:34.327Z,7564.00
2018-06-19T11:04:34.482Z,8116.00
2018-06-19T11:06:40.693Z,6248.00
2018-06-19T11:07:39.976Z,5952.00
2018-06-19T11:09:43.561Z,5432.00
2018-06-19T11:10:43.353Z,4684.00
2018-06-19T11:12:47.406Z,3676.00
2018-06-19T11:13:47.186Z,3604.00
2018-06-19T11:15:50.888Z,3828.00
2018-06-19T11:16:50.400Z,4196.00
2018-06-19T11:18:56.479Z,5020.00
2018-06-19T11:19:56.126Z,5816.00
2018-06-19T11:22:00.350Z,6824.00
2018-06-19T11:23:00.447Z,7228.00
2018-06-19T11:24:58.408Z,7932.00
2018-06-19T11:25:58.116Z,7284.00
2018-06-19T11:28:02.322Z,5232.00
2018-06-19T11:29:02.124Z,5236.00
2018-06-19T11:31:11.943Z,4400.00
2018-06-19T11:32:12.084Z,3964.00
2018-06-19T11:34:18.645Z,3136.00
2018-06-19T11:35:18.887Z,2868.00
2018-06-19T11:37:24.827Z,3392.00
2018-06-19T11:38:24.445Z,3640.00
2018-06-19T11:40:27.343Z,3908.00
2018-06-19T11:41:27.236Z,4632.00
2018-06-19T11:43:32.551Z,4696.00
2018-06-19T11:44:32.200Z,4156.00
2018-06-19T11:45:31.491Z,3988.00
2018-06-19T11:46:31.467Z,4020.00
2018-06-19T11:47:32.102Z,4328.00
2018-06-19T11:48:31.800Z,4504.00
2018-06-19T11:49:31.341Z,4804.00
2018-06-19T11:50:31.359Z,5592.00
2018-06-19T11:51:31.295Z,6400.00
2018-06-19T11:52:31.274Z,7096.00
2018-06-19T11:53:31.288Z,7896.00
2018-06-19T11:54:31.231Z,8208.00
2018-06-19T11:55:31.199Z,8404.00
2018-06-19T11:56:31.183Z,8200.00
2018-06-19T11:57:31.144Z,8040.00
2018-06-19T11:58:31.143Z,7716.00
2018-06-19T11:59:31.107Z,7120.00
2018-06-19T12:00:31.146Z,7052.00
2018-06-19T12:01:31.055Z,8008.00
2018-06-19T12:02:31.058Z,8748.00
2018-06-19T12:03:31.040Z,8616.00
2018-06-19T12:04:31.063Z,8728.00
2018-06-19T12:05:30.958Z,9280.00
2018-06-19T12:06:30.946Z,10372.00
2018-06-19T12:07:30.914Z,11600.00
2018-06-19T12:08:30.894Z,12172.00
2018-06-19T12:09:30.871Z,13136.00
2018-06-19T12:10:30.859Z,13424.00
2018-06-19T12:11:30.817Z,13300.00
2018-06-19T12:12:30.794Z,13188.00
2018-06-19T12:13:30.799Z,13256.00
2018-06-19T12:14:30.758Z,13256.00
2018-06-19T12:15:30.731Z,12920.00
2018-06-19T12:16:30.739Z,12188.00
2018-06-19T12:17:30.690Z,11584.00
2018-06-19T12:18:30.693Z,11732.00
2018-06-19T12:19:30.666Z,11960.00
2018-06-19T12:20:30.669Z,11852.00
2018-06-19T12:21:30.590Z,12016.00
2018-06-19T12:22:30.567Z,11656.00
2018-06-19T12:23:30.558Z,11616.00
2018-06-19T12:24:30.600Z,11572.00
2018-06-19T12:25:30.510Z,11580.00
2018-06-19T12:26:30.486Z,11756.00
2018-06-19T12:27:30.517Z,11928.00
2018-06-19T12:28:30.447Z,11652.00
2018-06-19T12:29:30.416Z,11652.00
2018-06-19T12:30:30.399Z,11848.00
2018-06-19T12:31:30.373Z,12588.00
2018-06-19T12:32:30.426Z,13212.00
2018-06-19T12:33:30.344Z,13360.00
2018-06-19T12:34:30.380Z,13292.00
2018-06-19T12:35:30.301Z,13172.00
2018-06-19T12:36:30.330Z,12956.00
2018-06-19T12:37:30.357Z,12788.00
2018-06-19T12:38:30.267Z,12560.00
2018-06-19T12:39:30.200Z,12400.00
2018-06-19T12:40:30.208Z,12356.00
2018-06-19T12:41:30.194Z,12464.00
2018-06-19T12:42:30.188Z,12684.00
2018-06-19T12:43:30.126Z,12968.00
2018-06-19T12:44:30.098Z,13168.00
2018-06-19T12:45:30.088Z,13064.00
2018-06-19T12:46:30.095Z,12880.00
2018-06-19T12:47:30.046Z,12920.00
2018-06-19T12:48:30.026Z,13044.00
2018-06-19T12:49:30.000Z,13280.00
2018-06-19T12:50:30.016Z,13336.00
2018-06-19T12:51:29.958Z,13252.00
2018-06-19T12:52:29.938Z,13420.00